Time;durP1;ratioP1;P1;durP2;ratioP2;P2;SDS_P1;SDS_P2;PMS_P1;PMS_P2;Temp;Humidity;BMP_temperature;BMP_pressure;BME280_temperature;BME280_humidity;BME280_pressure;Samples;Min_cycle;Max_cycle;Signal;HPM_P1;HPM_P2
2023/02/19 00:03:08;;;;;;;6.43;4.00;;;;;9.80;101469.00;;;;10039203;29;20488;-77
2023/02/19 00:08:09;;;;;;;10.50;5.27;;;;;9.80;101479.00;;;;10007217;29;20201;-76
2023/02/19 00:13:12;;;;;;;8.80;5.63;;;;;9.80;101473.00;;;;10005717;29;20225;-77
2023/02/19 00:18:13;;;;;;;8.73;5.63;;;;;9.80;101469.00;;;;10021062;29;20220;-77
2023/02/19 00:23:15;;;;;;;11.00;6.73;;;;;9.80;101463.00;;;;10037093;29;20737;-77
2023/02/19 00:28:17;;;;;;;12.53;7.07;;;;;9.80;101472.00;;;;10017818;29;20299;-77
2023/02/19 00:33:19;;;;;;;14.87;7.67;;;;;9.80;101469.00;;;;10007141;29;20242;-77
2023/02/19 00:38:21;;;;;;;13.80;6.87;;;;;9.90;101465.00;;;;10032970;29;20554;-78
2023/02/19 00:43:23;;;;;;;12.37;8.00;;;;;9.90;101451.00;;;;10015328;29;20217;-78
2023/02/19 00:48:25;;;;;;;14.10;8.53;;;;;9.90;101453.00;;;;10011041;29;20673;-78
2023/02/19 00:53:27;;;;;;;17.53;8.13;;;;;9.90;101459.00;;;;9993008;29;20657;-77
2023/02/19 00:58:29;;;;;;;14.43;8.60;;;;;9.80;101453.00;;;;10010275;29;20653;-77
2023/02/19 01:03:36;;;;;;;15.03;7.77;;;;;9.80;101460.00;;;;10035069;29;20741;-78
2023/02/19 01:08:38;;;;;;;11.17;6.83;;;;;9.80;101476.00;;;;10019432;29;20209;-77
2023/02/19 01:13:41;;;;;;;14.17;7.47;;;;;9.80;101475.00;;;;10034616;29;20189;-77
2023/02/19 01:18:44;;;;;;;12.00;6.80;;;;;9.90;101484.00;;;;10003164;29;20240;-77
2023/02/19 01:23:47;;;;;;;14.70;7.17;;;;;9.90;101481.00;;;;10020314;29;20221;-77
2023/02/19 01:28:50;;;;;;;13.60;7.17;;;;;9.90;101477.00;;;;10002378;29;20197;-78
2023/02/19 01:33:57;;;;;;;11.63;7.10;;;;;9.90;101473.00;;;;9994188;29;20661;-77
2023/02/19 01:39:03;;;;;;;13.57;6.90;;;;;9.80;101475.00;;;;10035060;29;20691;-78
2023/02/19 01:44:15;;;;;;;11.20;5.93;;;;;9.80;101492.00;;;;10026718;29;20215;-77
2023/02/19 01:49:22;;;;;;;12.43;5.83;;;;;9.80;101491.00;;;;10027459;29;20668;-77
2023/02/19 01:54:28;;;;;;;9.77;6.30;;;;;9.80;101494.00;;;;10012531;29;20705;-77
2023/02/19 01:59:32;;;;;;;11.93;5.03;;;;;9.80;101496.00;;;;10012197;29;20689;-78
2023/02/19 02:04:34;;;;;;;10.10;4.83;;;;;9.80;101486.00;;;;10027667;29;20316;-77
2023/02/19 02:14:57;;;;;;;11.60;4.63;;;;;9.70;101493.00;;;;10041381;29;20193;-78
2023/02/19 02:20:11;;;;;;;5.93;3.90;;;;;9.70;101498.00;;;;10009569;29;20316;-78
2023/02/19 02:25:29;;;;;;;10.53;3.50;;;;;9.70;101501.00;;;;10040558;29;20741;-77
2023/02/19 02:30:52;;;;;;;6.80;3.37;;;;;9.60;101499.00;;;;10009373;29;20296;-77
2023/02/19 02:36:07;;;;;;;9.40;3.43;;;;;9.60;101498.00;;;;10015109;29;20208;-78
2023/02/19 02:41:14;;;;;;;4.43;2.87;;;;;9.60;101497.00;;;;10003058;29;20209;-78
2023/02/19 02:46:28;;;;;;;10.73;3.30;;;;;9.60;101501.00;;;;10024343;29;20217;-77
2023/02/19 02:51:39;;;;;;;10.17;2.90;;;;;9.60;101507.00;;;;10054346;29;20206;-77
2023/02/19 02:56:48;;;;;;;9.80;2.77;;;;;9.60;101498.00;;;;10009842;29;20221;-77
2023/02/19 03:02:12;;;;;;;5.37;2.53;;;;;9.60;101505.00;;;;10024582;29;20199;-77
2023/02/19 03:07:15;;;;;;;7.70;2.70;;;;;9.60;101515.00;;;;10009859;29;20774;-77
2023/02/19 03:23:11;;;;;;;11.97;2.77;;;;;9.60;101519.00;;;;10003560;29;20713;-77
2023/02/19 03:28:16;;;;;;;15.33;3.03;;;;;9.60;101519.00;;;;10022305;29;20241;-77
2023/02/19 03:33:27;;;;;;;11.33;2.20;;;;;9.60;101524.00;;;;10035187;29;20201;-77
2023/02/19 03:38:48;;;;;;;7.30;2.60;;;;;9.60;101523.00;;;;10034947;29;20696;-77
2023/02/19 03:44:32;;;;;;;12.87;2.60;;;;;9.50;101536.00;;;;10046871;29;20197;-77
2023/02/19 03:49:38;;;;;;;5.37;2.13;;;;;9.60;101545.00;;;;10037923;29;20626;-76
2023/02/19 03:54:52;;;;;;;9.77;2.50;;;;;9.60;101555.00;;;;10019244;29;20235;-77
2023/02/19 04:00:09;;;;;;;4.90;1.90;;;;;9.60;101562.00;;;;10011593;29;20208;-76
2023/02/19 04:05:20;;;;;;;7.00;2.43;;;;;9.60;101558.00;;;;10058053;29;20216;-77
2023/02/19 04:10:23;;;;;;;10.13;2.60;;;;;9.60;101566.00;;;;10013747;29;20208;-76
2023/02/19 04:15:30;;;;;;;8.47;2.50;;;;;9.60;101567.00;;;;10023818;29;20231;-76
2023/02/19 04:20:39;;;;;;;6.93;1.83;;;;;9.60;101578.00;;;;10037950;29;20296;-77
2023/02/19 04:25:44;;;;;;;7.70;2.20;;;;;9.60;101585.00;;;;10021041;29;20217;-77
2023/02/19 04:30:46;;;;;;;9.20;2.40;;;;;9.60;101578.00;;;;10021227;29;20893;-77
2023/02/19 04:35:49;;;;;;;11.13;2.50;;;;;9.60;101589.00;;;;10023602;29;20193;-77
2023/02/19 04:40:51;;;;;;;5.33;1.80;;;;;9.50;101591.00;;;;10038232;29;20922;-77
2023/02/19 04:45:53;;;;;;;7.80;2.13;;;;;9.50;101599.00;;;;10039593;29;20224;-77
2023/02/19 04:50:55;;;;;;;13.07;2.50;;;;;9.60;101597.00;;;;10018013;29;20240;-77
2023/02/19 04:56:03;;;;;;;11.27;1.87;;;;;9.50;101606.00;;;;10022505;29;20213;-77
2023/02/19 05:01:06;;;;;;;8.20;1.97;;;;;9.50;101615.00;;;;10024220;29;20188;-77
2023/02/19 05:06:11;;;;;;;9.43;1.93;;;;;9.50;101622.00;;;;10038300;29;20704;-77
2023/02/19 05:11:13;;;;;;;7.87;2.27;;;;;9.50;101621.00;;;;10052882;29;20208;-77
2023/02/19 05:16:15;;;;;;;9.80;2.43;;;;;9.50;101624.00;;;;10006249;29;20209;-77
2023/02/19 05:21:18;;;;;;;8.30;1.80;;;;;9.50;101630.00;;;;10030039;29;20204;-77
2023/02/19 05:26:21;;;;;;;11.50;2.60;;;;;9.50;101645.00;;;;10059113;29;20279;-77
2023/02/19 05:31:24;;;;;;;18.93;2.77;;;;;9.50;101655.00;;;;10010847;29;20213;-77
2023/02/19 05:36:26;;;;;;;15.17;2.30;;;;;9.50;101661.00;;;;9991545;29;20194;-77
2023/02/19 05:41:29;;;;;;;7.40;2.10;;;;;9.50;101664.00;;;;10079067;29;20246;-77
2023/02/19 05:46:32;;;;;;;10.17;2.10;;;;;9.40;101665.00;;;;10019610;29;20300;-78
2023/02/19 05:51:34;;;;;;;9.53;2.27;;;;;9.40;101658.00;;;;10061836;29;20656;-76
2023/02/19 05:56:41;;;;;;;11.43;2.27;;;;;9.40;101678.00;;;;10027830;29;20197;-77
2023/02/19 06:01:43;;;;;;;14.30;2.40;;;;;9.40;101686.00;;;;10065011;29;20252;-77
2023/02/19 06:06:46;;;;;;;8.77;1.87;;;;;9.40;101690.00;;;;10007444;29;20288;-77
2023/02/19 06:11:48;;;;;;;11.83;2.63;;;;;9.40;101694.00;;;;10024212;29;20197;-76
2023/02/19 06:16:50;;;;;;;14.60;2.67;;;;;9.40;101690.00;;;;10042734;29;20201;-77
2023/02/19 06:21:52;;;;;;;7.13;2.47;;;;;9.40;101702.00;;;;10033841;29;20239;-76
2023/02/19 06:26:54;;;;;;;8.37;2.13;;;;;9.40;101703.00;;;;10034870;29;20715;-77
2023/02/19 06:31:56;;;;;;;8.67;2.57;;;;;9.30;101707.00;;;;10044645;29;20686;-76
2023/02/19 06:36:59;;;;;;;7.67;2.30;;;;;9.30;101707.00;;;;10060053;29;20193;-76
2023/02/19 06:42:01;;;;;;;10.67;2.43;;;;;9.30;101709.00;;;;10042423;29;20212;-77
2023/02/19 06:47:03;;;;;;;7.80;2.10;;;;;9.30;101707.00;;;;10043605;29;20217;-77
2023/02/19 06:52:05;;;;;;;10.43;2.60;;;;;9.30;101711.00;;;;10038045;29;20291;-76
2023/02/19 06:57:07;;;;;;;9.67;2.33;;;;;9.40;101715.00;;;;10043537;29;20217;-77
2023/02/19 07:02:12;;;;;;;8.17;1.90;;;;;9.40;101728.00;;;;10041028;29;20197;-77
2023/02/19 07:07:14;;;;;;;9.13;2.40;;;;;9.40;101726.00;;;;10025592;29;20217;-77
2023/02/19 07:12:16;;;;;;;8.03;2.60;;;;;9.50;101737.00;;;;10026474;29;20209;-77
2023/02/19 07:17:18;;;;;;;7.90;1.83;;;;;9.50;101747.00;;;;10032935;29;20561;-77
2023/02/19 07:22:20;;;;;;;14.20;2.63;;;;;9.50;101755.00;;;;10025919;29;20569;-76
2023/02/19 07:27:22;;;;;;;14.70;2.57;;;;;9.60;101752.00;;;;10039462;29;20225;-77
2023/02/19 07:32:24;;;;;;;10.60;2.33;;;;;9.70;101766.00;;;;10031066;29;20256;-77
2023/02/19 07:37:26;;;;;;;8.37;1.90;;;;;9.70;101778.00;;;;10025544;29;20198;-77
2023/02/19 07:42:27;;;;;;;11.23;2.00;;;;;9.70;101782.00;;;;10028089;29;20281;-76
2023/02/19 07:47:29;;;;;;;8.07;2.00;;;;;9.70;101780.00;;;;10014405;29;20232;-77
2023/02/19 07:52:33;;;;;;;11.67;2.37;;;;;9.80;101790.00;;;;10001605;29;20201;-76
2023/02/19 07:57:35;;;;;;;7.23;1.70;;;;;9.90;101808.00;;;;10017306;29;20201;-77
2023/02/19 08:07:58;;;;;;;9.97;2.17;;;;;9.90;101818.00;;;;10033999;29;20215;-78
2023/02/19 08:13:22;;;;;;;10.30;2.40;;;;;9.90;101829.00;;;;10027103;29;20200;-78
2023/02/19 08:18:26;;;;;;;4.33;1.93;;;;;9.90;101837.00;;;;10030175;29;20224;-77
2023/02/19 08:23:31;;;;;;;9.57;2.30;;;;;9.80;101856.00;;;;10017313;29;20276;-78
2023/02/19 08:28:35;;;;;;;7.93;2.17;;;;;9.70;101864.00;;;;10010639;29;20216;-78
2023/02/19 08:33:37;;;;;;;13.73;2.70;;;;;9.90;101872.00;;;;10011069;29;20185;-78
2023/02/19 08:38:50;;;;;;;11.00;2.07;;;;;9.90;101874.00;;;;10000228;29;20243;-77
2023/02/19 08:43:53;;;;;;;8.03;1.80;;;;;10.00;101878.00;;;;10033918;29;20214;-78
2023/02/19 08:48:55;;;;;;;9.20;2.00;;;;;10.20;101893.00;;;;9999793;29;20287;-78
2023/02/19 08:53:57;;;;;;;9.33;2.77;;;;;10.40;101892.00;;;;10013906;29;20576;-77
2023/02/19 08:58:59;;;;;;;6.67;2.17;;;;;10.70;101895.00;;;;10029847;29;20205;-78
2023/02/19 09:04:01;;;;;;;7.50;1.93;;;;;11.00;101908.00;;;;10023154;29;20212;-77
2023/02/19 09:09:04;;;;;;;10.03;2.57;;;;;11.20;101918.00;;;;9991504;29;20194;-77
2023/02/19 09:14:09;;;;;;;5.83;1.90;;;;;11.10;101902.00;;;;10023384;29;20185;-76
2023/02/19 09:19:11;;;;;;;10.07;3.20;;;;;11.40;101921.00;;;;9992356;29;20207;-77
2023/02/19 09:24:12;;;;;;;9.37;2.17;;;;;11.60;101917.00;;;;10006758;29;20217;-77
2023/02/19 09:29:15;;;;;;;7.40;2.00;;;;;11.40;101927.00;;;;10031808;29;20287;-78
2023/02/19 09:34:18;;;;;;;9.63;2.23;;;;;11.30;101916.00;;;;10016513;29;20218;-77
2023/02/19 09:39:21;;;;;;;11.07;2.30;;;;;11.90;101915.00;;;;10026392;29;20669;-78
2023/02/19 09:44:26;;;;;;;6.30;2.27;;;;;11.70;101924.00;;;;10022028;29;20649;-78
2023/02/19 09:49:38;;;;;;;9.83;2.27;;;;;11.30;101917.00;;;;10014479;29;20214;-77
2023/02/19 09:54:41;;;;;;;6.37;2.00;;;;;11.50;101924.00;;;;10011281;29;20315;-78
2023/02/19 09:59:44;;;;;;;6.97;2.47;;;;;11.90;101934.00;;;;10022483;29;20204;-77
2023/02/19 10:04:50;;;;;;;5.70;2.23;;;;;12.10;101939.00;;;;9996404;29;20325;-78
2023/02/19 10:10:12;;;;;;;10.07;2.37;;;;;12.40;101947.00;;;;10005466;29;20204;-78
2023/02/19 10:15:37;;;;;;;8.83;2.30;;;;;12.80;101954.00;;;;10007343;29;20241;-78
2023/02/19 10:20:39;;;;;;;10.03;2.50;;;;;12.50;101946.00;;;;10029897;29;20201;-77
2023/02/19 10:25:50;;;;;;;7.47;1.97;;;;;12.30;101958.00;;;;10015162;29;20237;-78
2023/02/19 10:30:56;;;;;;;7.20;2.83;;;;;12.00;101959.00;;;;9997107;29;20204;-78
2023/02/19 10:36:01;;;;;;;5.47;2.47;;;;;12.20;101969.00;;;;10006715;29;20227;-78
2023/02/19 10:41:16;;;;;;;7.77;2.53;;;;;12.60;101965.00;;;;10024822;29;20236;-77
2023/02/19 10:46:24;;;;;;;7.87;2.40;;;;;12.70;101981.00;;;;10015879;29;20530;-78
2023/02/19 10:51:39;;;;;;;11.07;2.43;;;;;12.60;102008.00;;;;10005454;29;20198;-78
2023/02/19 10:56:43;;;;;;;6.30;1.83;;;;;12.30;102009.00;;;;10013545;29;20193;-77
2023/02/19 11:02:05;;;;;;;6.83;2.40;;;;;12.20;102013.00;;;;10024691;29;20656;-78
2023/02/19 11:07:16;;;;;;;10.33;2.70;;;;;12.00;101989.00;;;;10006266;29;20228;-79
2023/02/19 11:12:26;;;;;;;8.37;2.40;;;;;11.90;102018.00;;;;10025715;29;20725;-77
2023/02/19 11:17:29;;;;;;;9.10;2.83;;;;;11.80;102023.00;;;;9999426;29;20197;-77
2023/02/19 11:22:37;;;;;;;7.97;2.70;;;;;12.20;102025.00;;;;9989465;29;20197;-78
2023/02/19 11:28:05;;;;;;;9.53;2.90;;;;;12.20;102028.00;;;;10010245;29;20256;-78
2023/02/19 11:33:23;;;;;;;4.97;2.10;;;;;12.00;102024.00;;;;10018155;29;20200;-77
2023/02/19 11:38:26;;;;;;;7.30;2.90;;;;;11.70;102024.00;;;;9996020;29;20209;-77
2023/02/19 11:43:40;;;;;;;5.00;2.87;;;;;11.70;102029.00;;;;10027503;29;20307;-78
2023/02/19 11:48:53;;;;;;;6.97;2.73;;;;;11.70;102031.00;;;;10006776;29;20246;-77
2023/02/19 11:54:20;;;;;;;8.17;3.93;;;;;11.70;102032.00;;;;10015603;29;20199;-77
2023/02/19 11:59:47;;;;;;;8.73;2.90;;;;;11.70;102024.00;;;;10017490;29;20273;-77
2023/02/19 12:05:17;;;;;;;6.73;2.87;;;;;11.70;102008.00;;;;10002133;29;20235;-77
2023/02/19 12:11:02;;;;;;;4.67;2.53;;;;;11.50;101991.00;;;;10022180;29;20197;-78
2023/02/19 12:16:28;;;;;;;5.17;3.30;;;;;11.60;102000.00;;;;9998255;29;20275;-77
2023/02/19 12:21:42;;;;;;;7.13;2.63;;;;;11.60;101997.00;;;;10030224;29;20200;-78
2023/02/19 12:27:09;;;;;;;4.87;2.27;;;;;11.60;101981.00;;;;10005144;29;20227;-77
2023/02/19 12:32:38;;;;;;;4.10;2.70;;;;;11.40;101991.00;;;;10021709;29;20322;-78
2023/02/19 12:37:45;;;;;;;8.30;2.70;;;;;11.20;102004.00;;;;10011031;29;20197;-77
2023/02/19 12:42:47;;;;;;;6.43;2.93;;;;;11.00;102017.00;;;;10016014;29;20254;-78
2023/02/19 12:48:10;;;;;;;9.63;3.70;;;;;11.00;102004.00;;;;10023563;29;20400;-78
2023/02/19 12:53:29;;;;;;;9.87;3.83;;;;;11.00;102025.00;;;;10043161;29;20236;-78
2023/02/19 12:58:38;;;;;;;6.90;3.30;;;;;11.00;102032.00;;;;10010588;29;20676;-77
2023/02/19 13:03:48;;;;;;;4.10;2.30;;;;;11.00;102049.00;;;;10009160;29;20200;-78
2023/02/19 13:09:03;;;;;;;7.70;2.83;;;;;11.10;102055.00;;;;10000322;29;20208;-78
2023/02/19 13:14:10;;;;;;;4.70;2.20;;;;;11.40;102044.00;;;;9986746;29;20225;-78
2023/02/19 13:19:13;;;;;;;5.23;2.20;;;;;11.60;102048.00;;;;9996807;29;20201;-78
2023/02/19 13:24:33;;;;;;;5.77;2.00;;;;;11.70;102043.00;;;;10015845;29;20228;-78
2023/02/19 13:29:54;;;;;;;2.30;2.10;;;;;11.40;102057.00;;;;9988452;29;20193;-79
2023/02/19 13:35:19;;;;;;;5.50;2.40;;;;;11.10;102066.00;;;;10012856;29;20740;-79
2023/02/19 13:40:33;;;;;;;5.13;2.20;;;;;10.80;102072.00;;;;10031234;29;20226;-78
2023/02/19 13:45:42;;;;;;;5.50;2.27;;;;;10.50;102070.00;;;;10009161;29;20319;-78
2023/02/19 13:50:44;;;;;;;4.63;2.90;;;;;10.30;102087.00;;;;9994019;29;20205;-78
2023/02/19 13:55:50;;;;;;;8.13;2.87;;;;;10.20;102092.00;;;;10034188;29;20607;-78
2023/02/19 14:00:53;;;;;;;4.67;2.80;;;;;10.30;102079.00;;;;10033831;29;20269;-78
2023/02/19 14:06:06;;;;;;;6.50;2.63;;;;;10.30;102080.00;;;;10036172;29;20212;-78
2023/02/19 14:11:10;;;;;;;4.57;2.07;;;;;10.00;102092.00;;;;10040473;29;20205;-79
2023/02/19 14:16:51;;;;;;;3.57;2.33;;;;;10.00;102110.00;;;;10015038;29;20220;-78
2023/02/19 14:21:55;;;;;;;5.67;2.30;;;;;10.10;102102.00;;;;10007210;29;20209;-78
2023/02/19 14:26:59;;;;;;;4.60;2.33;;;;;10.10;102103.00;;;;10026378;29;20224;-78
2023/02/19 14:32:04;;;;;;;2.47;1.63;;;;;9.80;102116.00;;;;10006071;29;20258;-78
2023/02/19 14:37:16;;;;;;;10.70;8.43;;;;;9.50;102133.00;;;;10005362;29;20213;-78
2023/02/19 14:42:26;;;;;;;7.13;5.40;;;;;9.20;102152.00;;;;10016201;29;20225;-78
2023/02/19 14:47:33;;;;;;;4.77;2.77;;;;;9.10;102149.00;;;;10037333;29;20602;-78
2023/02/19 14:52:39;;;;;;;5.67;2.30;;;;;9.20;102150.00;;;;10009037;29;20198;-79
2023/02/19 14:57:47;;;;;;;2.60;1.47;;;;;9.50;102145.00;;;;10032392;29;20258;-79
2023/02/19 15:02:51;;;;;;;2.10;1.70;;;;;9.80;102134.00;;;;10011452;29;20289;-78
2023/02/19 15:07:56;;;;;;;3.70;1.67;;;;;9.80;102145.00;;;;10036459;29;20308;-78
2023/02/19 15:13:02;;;;;;;2.53;1.90;;;;;9.90;102132.00;;;;10036621;29;20201;-79
2023/02/19 15:18:05;;;;;;;4.87;2.33;;;;;10.00;102139.00;;;;10019537;29;20190;-79
2023/02/19 15:23:07;;;;;;;3.80;1.80;;;;;10.10;102138.00;;;;10005846;29;20292;-79
2023/02/19 15:28:24;;;;;;;3.33;1.60;;;;;10.00;102126.00;;;;10010654;29;20232;-78
2023/02/19 15:33:26;;;;;;;7.60;1.77;;;;;10.10;102119.00;;;;10023017;29;20207;-78
2023/02/19 15:38:29;;;;;;;2.70;1.50;;;;;10.10;102118.00;;;;9998591;29;20280;-79
2023/02/19 15:43:52;;;;;;;4.87;2.20;;;;;10.00;102108.00;;;;10015715;29;20204;-79
2023/02/19 15:49:03;;;;;;;3.90;2.03;;;;;10.00;102089.00;;;;10032051;29;20227;-78
2023/02/19 15:54:24;;;;;;;3.80;1.67;;;;;9.80;102092.00;;;;10008206;29;20205;-78
2023/02/19 15:59:42;;;;;;;4.73;1.80;;;;;9.70;102118.00;;;;10009458;29;20201;-78
2023/02/19 16:04:44;;;;;;;3.63;2.00;;;;;9.50;102122.00;;;;10013816;29;20638;-78
2023/02/19 16:09:46;;;;;;;8.17;2.77;;;;;9.50;102139.00;;;;9992478;29;20273;-78
2023/02/19 16:14:49;;;;;;;6.67;2.43;;;;;9.50;102136.00;;;;10011769;29;20273;-78
2023/02/19 16:20:00;;;;;;;5.53;3.23;;;;;9.30;102150.00;;;;10029954;29;20741;-79
2023/02/19 16:25:05;;;;;;;4.80;2.53;;;;;9.20;102152.00;;;;9999655;29;20684;-79
2023/02/19 16:30:25;;;;;;;3.77;2.73;;;;;9.10;102144.00;;;;10012403;29;20205;-78
2023/02/19 16:35:38;;;;;;;3.70;2.17;;;;;9.00;102150.00;;;;10019447;29;20196;-78
2023/02/19 16:41:03;;;;;;;3.80;2.97;;;;;8.90;102135.00;;;;10036468;29;20238;-78
2023/02/19 16:46:09;;;;;;;3.67;2.17;;;;;8.90;102151.00;;;;10016189;29;20294;-79
2023/02/19 16:51:19;;;;;;;4.03;2.23;;;;;8.80;102160.00;;;;10050298;29;20799;-78
2023/02/19 16:56:21;;;;;;;4.97;2.50;;;;;8.70;102161.00;;;;10016257;29;20257;-77
2023/02/19 17:01:25;;;;;;;5.60;3.20;;;;;8.70;102176.00;;;;10032528;29;20625;-78
2023/02/19 17:06:27;;;;;;;7.43;3.50;;;;;8.70;102170.00;;;;10018452;29;20291;-78
2023/02/19 17:11:29;;;;;;;3.50;2.87;;;;;8.60;102183.00;;;;10021133;29;20249;-79
2023/02/19 17:16:38;;;;;;;5.77;3.60;;;;;8.60;102190.00;;;;10023589;29;20598;-78
2023/02/19 17:21:41;;;;;;;5.27;3.20;;;;;8.50;102173.00;;;;10021922;29;20288;-79
2023/02/19 17:26:43;;;;;;;7.00;3.30;;;;;8.50;102180.00;;;;10025414;29;20228;-79
2023/02/19 17:31:45;;;;;;;3.97;2.90;;;;;8.50;102189.00;;;;10053264;29;20292;-78
2023/02/19 17:36:47;;;;;;;6.03;3.07;;;;;8.50;102189.00;;;;10034185;29;20201;-78
2023/02/19 17:41:50;;;;;;;6.97;3.93;;;;;8.50;102199.00;;;;9983912;29;20216;-78
2023/02/19 17:46:52;;;;;;;5.20;3.67;;;;;8.40;102205.00;;;;10009864;29;20284;-79
2023/02/19 17:51:53;;;;;;;6.67;3.87;;;;;8.40;102199.00;;;;10043475;29;20211;-78
2023/02/19 17:56:55;;;;;;;8.07;4.30;;;;;8.40;102219.00;;;;10016427;29;20277;-78
2023/02/19 18:01:57;;;;;;;10.90;4.07;;;;;8.40;102223.00;;;;10051710;29;20216;-78
2023/02/19 18:07:00;;;;;;;9.63;4.20;;;;;8.40;102229.00;;;;10026002;29;20688;-77
2023/02/19 18:12:03;;;;;;;10.27;4.00;;;;;8.40;102221.00;;;;10013037;29;20200;-77
2023/02/19 18:17:05;;;;;;;7.90;4.50;;;;;8.40;102208.00;;;;10011945;29;20653;-77
2023/02/19 18:22:07;;;;;;;8.43;4.07;;;;;8.40;102206.00;;;;10040236;29;20205;-78
2023/02/19 18:27:09;;;;;;;7.47;4.53;;;;;8.40;102198.00;;;;10025476;29;20292;-77
2023/02/19 18:32:11;;;;;;;8.63;4.70;;;;;8.40;102202.00;;;;10027185;29;20201;-78
2023/02/19 18:37:12;;;;;;;9.00;5.13;;;;;8.30;102192.00;;;;10007609;29;20228;-77
2023/02/19 18:42:15;;;;;;;7.87;4.53;;;;;8.20;102189.00;;;;10010052;29;20212;-77
2023/02/19 18:47:18;;;;;;;9.70;4.77;;;;;8.00;102192.00;;;;10042730;29;20217;-78
2023/02/19 18:52:23;;;;;;;8.40;4.87;;;;;7.80;102218.00;;;;10032094;29;20202;-77
2023/02/19 18:57:25;;;;;;;8.83;4.53;;;;;7.60;102205.00;;;;10022120;29;20193;-77
2023/02/19 19:02:27;;;;;;;7.70;4.83;;;;;7.40;102209.00;;;;10027128;29;20318;-78
2023/02/19 19:07:43;;;;;;;7.43;4.67;;;;;7.30;102197.00;;;;10025684;29;20306;-78
2023/02/19 19:12:45;;;;;;;7.13;4.37;;;;;7.20;102210.00;;;;10025605;29;20197;-77
2023/02/19 19:17:47;;;;;;;10.77;4.60;;;;;7.00;102205.00;;;;10057866;29;20202;-78
2023/02/19 19:22:51;;;;;;;12.03;4.60;;;;;7.00;102212.00;;;;10037775;29;20239;-78
2023/02/19 19:27:56;;;;;;;11.43;6.13;;;;;6.80;102213.00;;;;10009545;29;20680;-78
2023/02/19 19:33:00;;;;;;;9.43;5.77;;;;;6.80;102214.00;;;;10044757;29;20208;-78
2023/02/19 19:38:02;;;;;;;9.53;5.80;;;;;6.70;102200.00;;;;10056712;29;20207;-78
2023/02/19 19:43:04;;;;;;;9.53;5.63;;;;;6.70;102199.00;;;;10035174;29;20825;-78
2023/02/19 19:48:06;;;;;;;9.93;5.63;;;;;6.60;102204.00;;;;10044459;29;20280;-78
2023/02/19 19:53:08;;;;;;;8.00;4.90;;;;;6.40;102201.00;;;;10014262;29;20201;-77
2023/02/19 19:58:10;;;;;;;8.00;4.37;;;;;6.30;102195.00;;;;10018929;29;20189;-77
2023/02/19 20:03:12;;;;;;;8.67;5.00;;;;;6.10;102196.00;;;;10038354;29;20541;-77
2023/02/19 20:08:15;;;;;;;6.57;4.87;;;;;6.00;102198.00;;;;10025104;29;20669;-77
2023/02/19 20:13:19;;;;;;;8.53;5.37;;;;;6.00;102200.00;;;;10009083;29;20208;-78
2023/02/19 20:18:24;;;;;;;10.93;6.17;;;;;6.00;102190.00;;;;10039138;29;20657;-77
2023/02/19 20:23:26;;;;;;;13.50;7.93;;;;;5.90;102204.00;;;;10025028;29;20311;-78
2023/02/19 20:28:28;;;;;;;8.93;5.40;;;;;5.80;102212.00;;;;10017912;29;20692;-77
2023/02/19 20:33:30;;;;;;;8.57;4.73;;;;;5.80;102206.00;;;;10038593;29;20296;-77
2023/02/19 20:38:32;;;;;;;10.00;5.60;;;;;5.80;102205.00;;;;10039221;29;20284;-78
2023/02/19 20:43:34;;;;;;;10.60;4.63;;;;;5.70;102218.00;;;;10023272;29;20209;-78
2023/02/19 20:48:36;;;;;;;8.17;5.03;;;;;5.70;102212.00;;;;10023880;29;20211;-78
2023/02/19 20:53:40;;;;;;;11.53;5.20;;;;;5.80;102209.00;;;;10000364;29;20208;-78
2023/02/19 20:58:42;;;;;;;10.53;6.17;;;;;5.80;102215.00;;;;10009920;29;20295;-77
2023/02/19 21:03:44;;;;;;;14.40;7.73;;;;;5.70;102211.00;;;;10022869;29;20260;-77
2023/02/19 21:08:46;;;;;;;13.00;6.97;;;;;5.70;102210.00;;;;9990070;29;20217;-77
2023/02/19 21:13:48;;;;;;;13.83;6.87;;;;;5.60;102215.00;;;;10020691;29;20308;-78
2023/02/19 21:18:51;;;;;;;11.53;6.47;;;;;5.60;102207.00;;;;10037798;29;20231;-78
2023/02/19 21:23:54;;;;;;;20.67;7.17;;;;;5.50;102214.00;;;;9996478;29;20226;-78
2023/02/19 21:28:56;;;;;;;11.90;6.57;;;;;5.50;102188.00;;;;10053683;29;20208;-78
2023/02/19 21:33:58;;;;;;;10.70;7.43;;;;;5.50;102192.00;;;;10040762;29;20205;-79
2023/02/19 21:39:00;;;;;;;15.10;7.57;;;;;5.50;102195.00;;;;10056882;29;20217;-77
2023/02/19 21:44:02;;;;;;;14.50;8.20;;;;;5.50;102195.00;;;;9994115;29;20205;-77
2023/02/19 21:49:06;;;;;;;12.53;7.40;;;;;5.40;102198.00;;;;10032847;29;20225;-78
2023/02/19 21:54:20;;;;;;;16.97;7.53;;;;;5.40;102203.00;;;;10023298;29;20216;-78
2023/02/19 21:59:22;;;;;;;11.43;7.43;;;;;5.40;102190.00;;;;10009695;29;20550;-78
2023/02/19 22:04:24;;;;;;;12.20;7.50;;;;;5.30;102195.00;;;;10022490;29;20212;-78
2023/02/19 22:09:26;;;;;;;16.80;8.50;;;;;5.30;102197.00;;;;10044467;29;20221;-77
2023/02/19 22:14:28;;;;;;;14.80;7.97;;;;;5.30;102204.00;;;;10012418;29;20224;-78
2023/02/19 22:19:30;;;;;;;14.73;8.60;;;;;5.30;102206.00;;;;10013255;29;20198;-78
2023/02/19 22:24:32;;;;;;;15.83;8.83;;;;;5.20;102197.00;;;;10024834;29;20239;-78
2023/02/19 22:29:33;;;;;;;12.77;8.13;;;;;5.20;102188.00;;;;10024312;29;20209;-78
2023/02/19 22:34:40;;;;;;;13.47;9.07;;;;;5.20;102186.00;;;;10020618;29;20197;-78
2023/02/19 22:39:43;;;;;;;15.73;8.47;;;;;5.10;102178.00;;;;10045753;29;20220;-77
2023/02/19 22:44:45;;;;;;;18.27;9.47;;;;;5.10;102190.00;;;;10002187;29;20209;-77
2023/02/19 22:49:47;;;;;;;18.20;10.33;;;;;5.00;102194.00;;;;9998361;29;20300;-77
2023/02/19 22:54:51;;;;;;;18.17;9.13;;;;;4.90;102183.00;;;;9998362;29;20202;-78
2023/02/19 22:59:53;;;;;;;19.93;10.53;;;;;4.90;102193.00;;;;10018753;29;20584;-78
2023/02/19 23:04:54;;;;;;;16.47;10.27;;;;;5.00;102179.00;;;;10002575;29;20206;-78
2023/02/19 23:09:56;;;;;;;23.17;9.87;;;;;5.10;102174.00;;;;9987909;29;20312;-78
2023/02/19 23:14:58;;;;;;;15.73;9.57;;;;;5.30;102162.00;;;;10020339;29;20208;-78
2023/02/19 23:20:00;;;;;;;21.17;8.30;;;;;5.40;102171.00;;;;10041297;29;20665;-78
2023/02/19 23:25:03;;;;;;;16.63;8.73;;;;;5.30;102175.00;;;;10025470;29;20277;-79
2023/02/19 23:30:05;;;;;;;14.83;7.20;;;;;5.30;102160.00;;;;10005540;29;20276;-78
2023/02/19 23:35:07;;;;;;;11.80;6.60;;;;;5.30;102153.00;;;;10025806;29;20245;-78
2023/02/19 23:40:10;;;;;;;13.53;7.57;;;;;5.30;102156.00;;;;10006739;29;20201;-78
2023/02/19 23:45:15;;;;;;;20.03;7.73;;;;;5.40;102152.00;;;;10007970;29;20606;-78
2023/02/19 23:50:17;;;;;;;14.43;6.70;;;;;5.50;102142.00;;;;10030543;29;20197;-78
2023/02/19 23:55:19;;;;;;;14.13;8.07;;;;;5.50;102146.00;;;;10023525;29;20229;-79
